createdAt,value
2022-08-17T00:00:11.964Z,25.80
2022-08-17T00:02:57.524Z,25.80
2022-08-17T00:05:25.588Z,25.80
2022-08-17T00:07:53.328Z,25.80
2022-08-17T00:10:21.461Z,25.80
2022-08-17T00:12:49.302Z,25.80
2022-08-17T00:15:17.617Z,25.80
2022-08-17T00:17:47.213Z,25.80
2022-08-17T00:20:15.636Z,25.80
2022-08-17T00:22:46.713Z,25.80
2022-08-17T00:25:16.510Z,25.80
2022-08-17T00:27:44.291Z,25.80
2022-08-17T00:30:13.098Z,25.80
2022-08-17T00:33:15.649Z,25.80
2022-08-17T00:35:34.313Z,25.80
2022-08-17T00:38:02.168Z,25.80
2022-08-17T00:40:44.630Z,25.80
2022-08-17T00:43:26.815Z,25.80
2022-08-17T00:45:54.644Z,25.80
2022-08-17T00:48:29.293Z,25.80
2022-08-17T00:51:12.594Z,25.80
2022-08-17T00:53:42.906Z,25.80
2022-08-17T00:56:12.704Z,25.80
2022-08-17T00:58:41.314Z,25.80
2022-08-17T01:01:10.252Z,25.80
2022-08-17T01:03:41.151Z,25.80
2022-08-17T01:06:09.527Z,25.80
2022-08-17T01:08:38.770Z,25.80
2022-08-17T01:11:07.838Z,25.80
2022-08-17T01:13:41.098Z,25.80
2022-08-17T01:16:26.619Z,25.80
2022-08-17T01:18:56.188Z,25.80
2022-08-17T01:21:33.295Z,25.80
2022-08-17T01:24:01.490Z,25.80
2022-08-17T01:26:30.674Z,25.80
2022-08-17T01:28:58.497Z,25.80
2022-08-17T01:31:29.044Z,25.70
2022-08-17T01:33:58.861Z,25.70
2022-08-17T01:36:28.729Z,25.70
2022-08-17T01:38:56.471Z,25.70
2022-08-17T01:41:24.896Z,25.70
2022-08-17T01:43:55.987Z,25.70
2022-08-17T01:46:27.435Z,25.70
2022-08-17T01:48:56.563Z,25.70
2022-08-17T01:51:33.174Z,25.70
2022-08-17T01:54:02.835Z,25.70
2022-08-17T01:56:30.725Z,25.70
2022-08-17T01:58:58.471Z,25.70
2022-08-17T02:01:27.881Z,25.70
2022-08-17T02:04:01.087Z,25.70
2022-08-17T02:06:31.423Z,25.70
2022-08-17T02:09:02.475Z,25.70
2022-08-17T02:11:32.697Z,25.70
2022-08-17T02:14:03.220Z,25.70
2022-08-17T02:16:36.873Z,25.70
2022-08-17T02:19:06.273Z,25.70
2022-08-17T02:21:34.578Z,25.60
2022-08-17T02:24:02.267Z,25.60
2022-08-17T02:26:30.297Z,25.60
2022-08-17T02:28:58.461Z,25.60
2022-08-17T02:31:26.106Z,25.60
2022-08-17T02:34:00.422Z,25.60
2022-08-17T02:36:34.380Z,25.60
2022-08-17T02:39:06.697Z,25.60
2022-08-17T02:41:35.048Z,25.60
2022-08-17T02:44:02.689Z,25.60
2022-08-17T02:46:31.357Z,25.60
2022-08-17T02:48:59.666Z,25.60
2022-08-17T02:51:27.437Z,25.60
2022-08-17T02:54:38.865Z,25.60
2022-08-17T02:56:43.257Z,25.60
2022-08-17T02:59:10.934Z,25.60
2022-08-17T03:01:38.822Z,25.60
2022-08-17T03:04:07.436Z,25.60
2022-08-17T03:06:35.645Z,25.60
2022-08-17T03:09:04.216Z,25.50
2022-08-17T03:11:32.675Z,25.60
2022-08-17T03:14:00.330Z,25.50
2022-08-17T03:16:28.029Z,25.60
2022-08-17T03:18:56.110Z,25.50
2022-08-17T03:21:23.820Z,25.50
2022-08-17T03:23:54.394Z,25.50
2022-08-17T03:26:22.828Z,25.50
2022-08-17T03:28:50.631Z,25.50
2022-08-17T03:31:18.692Z,25.50
2022-08-17T03:33:46.857Z,25.50
2022-08-17T03:36:14.546Z,25.50
2022-08-17T03:38:42.416Z,25.50
2022-08-17T03:41:14.274Z,25.50
2022-08-17T03:43:41.990Z,25.50
2022-08-17T03:46:34.969Z,25.50
2022-08-17T03:49:26.499Z,25.50
2022-08-17T03:52:13.477Z,25.50
2022-08-17T03:55:00.205Z,25.50
2022-08-17T03:57:28.225Z,25.40
2022-08-17T03:59:56.587Z,25.40
2022-08-17T04:02:28.655Z,25.40
2022-08-17T04:04:56.824Z,25.40
2022-08-17T04:07:25.461Z,25.40
2022-08-17T04:09:53.381Z,25.40
2022-08-17T04:12:23.110Z,25.40
2022-08-17T04:14:53.347Z,25.40
2022-08-17T04:17:26.636Z,25.40
2022-08-17T04:19:55.254Z,25.40
2022-08-17T04:22:31.965Z,25.40
2022-08-17T04:25:02.704Z,25.40
2022-08-17T04:27:30.863Z,25.40
2022-08-17T04:29:58.837Z,25.40
2022-08-17T04:33:00.649Z,25.40
2022-08-17T04:35:18.491Z,25.30
2022-08-17T04:37:46.289Z,25.30
2022-08-17T04:40:37.514Z,25.30
2022-08-17T04:43:07.689Z,25.30
2022-08-17T04:45:39.274Z,25.30
2022-08-17T04:48:07.309Z,25.30
2022-08-17T04:50:36.122Z,25.30
2022-08-17T04:53:07.758Z,25.30
2022-08-17T04:55:35.840Z,25.30
2022-08-17T04:58:03.586Z,25.20
2022-08-17T05:00:31.320Z,25.20
2022-08-17T05:02:59.598Z,25.30
2022-08-17T05:05:29.125Z,25.30
2022-08-17T05:08:00.687Z,25.20
2022-08-17T05:10:29.544Z,25.20
2022-08-17T05:12:58.915Z,25.30
2022-08-17T05:15:27.652Z,25.20
2022-08-17T05:17:55.395Z,25.20
2022-08-17T05:20:23.585Z,25.20
2022-08-17T05:22:52.833Z,25.20
2022-08-17T05:25:21.256Z,25.20
2022-08-17T05:27:54.583Z,25.20
2022-08-17T05:30:23.075Z,25.20
2022-08-17T05:32:52.076Z,25.20
2022-08-17T05:35:20.516Z,25.10
2022-08-17T05:37:48.238Z,25.20
2022-08-17T05:40:16.635Z,25.10
2022-08-17T05:42:44.950Z,25.10
2022-08-17T05:45:13.323Z,25.10
2022-08-17T05:47:41.503Z,25.10
2022-08-17T05:50:10.821Z,25.10
2022-08-17T05:52:50.617Z,25.10
2022-08-17T05:55:26.455Z,25.10
2022-08-17T05:58:04.025Z,25.10
2022-08-17T06:00:36.928Z,25.10
2022-08-17T06:03:30.283Z,25.10
2022-08-17T06:06:06.584Z,25.10
2022-08-17T06:08:43.705Z,25.10
2022-08-17T06:11:11.357Z,25.00
2022-08-17T06:13:39.664Z,25.10
2022-08-17T06:16:32.930Z,25.00
2022-08-17T06:19:03.072Z,25.00
2022-08-17T06:21:43.093Z,25.10
2022-08-17T06:24:29.663Z,25.00
2022-08-17T06:27:02.061Z,25.00
2022-08-17T06:29:38.907Z,25.00
2022-08-17T06:32:08.937Z,25.00
2022-08-17T06:34:37.881Z,25.00
2022-08-17T06:37:28.842Z,25.00
2022-08-17T06:40:16.118Z,25.00
2022-08-17T06:42:54.758Z,25.00
2022-08-17T06:45:39.515Z,25.00
2022-08-17T06:48:07.309Z,24.90
2022-08-17T06:50:36.245Z,25.00
2022-08-17T06:53:03.909Z,25.00
2022-08-17T06:55:45.467Z,24.90
2022-08-17T06:58:16.366Z,25.00
2022-08-17T07:00:46.533Z,25.00
2022-08-17T07:03:21.033Z,25.00
2022-08-17T07:05:51.789Z,25.00
2022-08-17T07:08:35.243Z,24.90
2022-08-17T07:11:13.384Z,24.90
2022-08-17T07:13:51.155Z,24.90
2022-08-17T07:16:22.644Z,24.90
2022-08-17T07:18:51.551Z,24.90
2022-08-17T07:21:56.376Z,24.90
2022-08-17T07:24:30.099Z,24.90
2022-08-17T07:27:10.635Z,24.90
2022-08-17T07:29:57.824Z,25.00
2022-08-17T07:32:27.916Z,25.00
2022-08-17T07:35:00.451Z,25.10
2022-08-17T07:37:28.422Z,25.20
2022-08-17T07:40:14.710Z,25.20
2022-08-17T07:43:00.606Z,25.30
2022-08-17T07:45:48.415Z,25.30
2022-08-17T07:48:21.433Z,25.30
2022-08-17T07:50:50.833Z,25.30
2022-08-17T07:53:20.063Z,25.40
2022-08-17T07:55:48.045Z,25.40
2022-08-17T07:58:17.613Z,25.40
2022-08-17T08:00:45.778Z,25.40
2022-08-17T08:03:16.986Z,25.40
2022-08-17T08:05:49.716Z,25.40
2022-08-17T08:08:26.828Z,25.50
2022-08-17T08:11:00.546Z,25.50
2022-08-17T08:13:29.976Z,25.60
2022-08-17T08:16:14.292Z,25.60
2022-08-17T08:18:55.566Z,25.60
2022-08-17T08:21:29.405Z,25.60
2022-08-17T08:24:03.742Z,25.60
2022-08-17T08:26:55.736Z,25.60
2022-08-17T08:29:42.215Z,25.70
2022-08-17T08:32:15.118Z,25.80
2022-08-17T08:35:04.963Z,25.80
2022-08-17T08:37:45.001Z,25.80
2022-08-17T08:40:28.791Z,25.90
2022-08-17T08:43:15.268Z,25.90
2022-08-17T08:45:46.233Z,25.90
2022-08-17T08:48:46.052Z,26.00
2022-08-17T08:51:15.029Z,26.00
2022-08-17T08:53:52.272Z,26.00
2022-08-17T08:56:27.945Z,26.00
2022-08-17T08:59:05.396Z,26.10
2022-08-17T09:01:51.544Z,26.10
2022-08-17T09:04:29.144Z,26.10
2022-08-17T09:07:10.398Z,26.20
2022-08-17T09:09:41.100Z,26.20
2022-08-17T09:12:17.099Z,26.10
2022-08-17T09:14:52.043Z,26.10
2022-08-17T09:17:22.291Z,26.10
2022-08-17T09:19:54.116Z,26.10
2022-08-17T09:22:22.203Z,26.10
2022-08-17T09:24:57.406Z,26.10
2022-08-17T09:27:33.429Z,26.20
2022-08-17T09:30:05.298Z,26.20
2022-08-17T09:32:55.498Z,26.20
2022-08-17T09:35:36.690Z,26.30
2022-08-17T09:38:11.351Z,26.30
2022-08-17T09:40:41.414Z,26.30
2022-08-17T09:43:14.637Z,26.30
2022-08-17T09:45:42.890Z,26.30
2022-08-17T09:48:18.419Z,26.30
2022-08-17T09:50:55.416Z,26.30
2022-08-17T09:53:33.218Z,26.30
2022-08-17T09:56:05.581Z,26.40
2022-08-17T09:58:41.106Z,26.40
2022-08-17T10:01:26.018Z,26.40
2022-08-17T10:03:54.198Z,26.40
2022-08-17T10:06:27.451Z,26.40
2022-08-17T10:08:58.673Z,26.40
2022-08-17T10:11:57.587Z,26.40
2022-08-17T10:14:46.318Z,26.50
2022-08-17T10:17:25.699Z,26.40
2022-08-17T10:20:00.855Z,26.40
2022-08-17T10:22:54.920Z,26.40
2022-08-17T10:25:54.544Z,26.40
2022-08-17T10:28:29.549Z,26.50
2022-08-17T10:33:54.688Z,26.50
2022-08-17T10:36:46.429Z,26.60
2022-08-17T10:39:20.236Z,26.60
2022-08-17T10:41:51.079Z,26.60
2022-08-17T10:44:39.320Z,26.60
2022-08-17T10:47:11.930Z,26.60
2022-08-17T10:49:47.906Z,26.60
2022-08-17T10:52:28.370Z,26.60
2022-08-17T10:54:58.996Z,26.60
2022-08-17T10:57:26.934Z,26.60
2022-08-17T10:59:55.270Z,26.60
2022-08-17T11:02:26.260Z,26.60
2022-08-17T11:04:58.489Z,26.60
2022-08-17T11:07:26.076Z,26.60
2022-08-17T11:10:13.680Z,26.60
2022-08-17T11:12:47.949Z,26.50
2022-08-17T11:15:19.975Z,26.60
2022-08-17T11:17:53.907Z,26.50
2022-08-17T11:20:28.136Z,26.50
2022-08-17T11:22:58.115Z,26.50
2022-08-17T11:25:34.421Z,26.60
2022-08-17T11:28:24.105Z,26.50
2022-08-17T11:30:54.607Z,26.50
2022-08-17T11:33:36.788Z,26.50
2022-08-17T11:36:06.623Z,26.50
2022-08-17T11:38:46.600Z,26.50
2022-08-17T11:41:14.602Z,26.50
2022-08-17T11:43:51.301Z,26.50
2022-08-17T11:46:19.475Z,26.50
2022-08-17T11:49:11.898Z,26.50
2022-08-17T11:51:58.695Z,26.50
2022-08-17T11:54:36.519Z,26.50
2022-08-17T11:57:23.253Z,26.50
2022-08-17T11:59:53.849Z,26.50
2022-08-17T12:02:32.881Z,26.50
2022-08-17T12:05:03.246Z,26.50
2022-08-17T12:07:33.309Z,26.40
2022-08-17T12:10:01.450Z,26.50
2022-08-17T12:12:32.904Z,26.50
2022-08-17T12:15:16.954Z,26.50
2022-08-17T12:17:54.595Z,26.40
2022-08-17T12:20:24.439Z,26.40
2022-08-17T12:22:55.071Z,26.40
2022-08-17T12:25:33.296Z,26.40
2022-08-17T12:28:06.401Z,26.50
2022-08-17T12:30:36.237Z,26.40
2022-08-17T12:33:03.954Z,26.40
2022-08-17T12:35:34.757Z,26.40
2022-08-17T12:38:03.604Z,26.40
2022-08-17T12:40:32.337Z,26.40
2022-08-17T12:43:08.826Z,26.50
2022-08-17T12:45:39.990Z,26.50
2022-08-17T12:48:22.723Z,26.50
2022-08-17T12:50:51.121Z,26.50
2022-08-17T12:53:23.415Z,26.50
2022-08-17T12:55:51.709Z,26.50
2022-08-17T12:58:22.428Z,26.50
2022-08-17T13:00:51.535Z,26.50
2022-08-17T13:03:21.438Z,26.50
2022-08-17T13:05:57.601Z,26.50
2022-08-17T13:08:41.348Z,26.50
2022-08-17T13:11:10.767Z,26.50
2022-08-17T13:13:40.036Z,26.60
2022-08-17T13:16:14.683Z,26.60
2022-08-17T13:18:46.922Z,26.50
2022-08-17T13:21:23.139Z,26.50
2022-08-17T13:24:14.931Z,26.50
2022-08-17T13:26:45.612Z,26.50
2022-08-17T13:29:25.883Z,26.50
2022-08-17T13:32:11.569Z,26.50
2022-08-17T13:35:11.857Z,26.50
2022-08-17T13:37:35.250Z,26.50
2022-08-17T13:40:03.369Z,26.50
2022-08-17T13:42:51.668Z,26.50
2022-08-17T13:45:36.647Z,26.50
2022-08-17T13:48:11.892Z,26.60
2022-08-17T13:50:42.450Z,26.60
2022-08-17T13:53:22.453Z,26.60
2022-08-17T13:55:55.530Z,26.60
2022-08-17T13:58:27.947Z,26.60
2022-08-17T14:00:56.488Z,26.60
2022-08-17T14:03:25.064Z,26.60
2022-08-17T14:05:53.165Z,26.60
2022-08-17T14:08:21.156Z,26.60
2022-08-17T14:10:57.296Z,26.60
2022-08-17T14:13:24.802Z,26.60
2022-08-17T14:15:56.124Z,26.60
2022-08-17T14:18:50.582Z,26.60
2022-08-17T14:21:13.178Z,26.70
2022-08-17T14:23:41.253Z,26.70
2022-08-17T14:26:17.456Z,26.60
2022-08-17T14:28:54.635Z,26.70
2022-08-17T14:31:25.165Z,26.70
2022-08-17T14:33:52.947Z,26.70
2022-08-17T14:36:20.607Z,26.70
2022-08-17T14:38:48.553Z,26.70
2022-08-17T14:41:20.061Z,26.70
2022-08-17T14:43:50.885Z,26.70
2022-08-17T14:46:18.681Z,26.70
2022-08-17T14:48:47.215Z,26.70
2022-08-17T14:51:16.286Z,26.70
2022-08-17T14:53:43.934Z,26.70
2022-08-17T14:56:11.602Z,26.70
2022-08-17T14:58:42.459Z,26.70
2022-08-17T15:01:11.314Z,26.70
2022-08-17T15:03:41.499Z,26.80
2022-08-17T15:06:16.359Z,26.80
2022-08-17T15:08:44.456Z,26.80
2022-08-17T15:11:15.007Z,26.80
2022-08-17T15:13:52.014Z,26.80
2022-08-17T15:16:21.104Z,26.80
2022-08-17T15:18:49.437Z,26.80
2022-08-17T15:21:18.416Z,26.80
2022-08-17T15:23:46.855Z,26.80
2022-08-17T15:26:14.452Z,26.80
2022-08-17T15:28:42.022Z,26.80
2022-08-17T15:31:10.023Z,26.80
2022-08-17T15:33:37.658Z,26.80
2022-08-17T15:36:06.774Z,26.80
2022-08-17T15:38:39.854Z,26.80
2022-08-17T15:41:08.716Z,26.80
2022-08-17T15:43:36.838Z,26.80
2022-08-17T15:46:12.606Z,26.80
2022-08-17T15:48:42.204Z,26.80
2022-08-17T15:51:30.527Z,26.80
2022-08-17T15:54:19.256Z,26.80
2022-08-17T15:56:51.032Z,26.80
2022-08-17T15:59:19.637Z,26.80
2022-08-17T16:03:14.446Z,26.80
2022-08-17T16:04:35.371Z,26.80
2022-08-17T16:07:05.697Z,26.80
2022-08-17T16:09:33.288Z,26.80
2022-08-17T16:12:11.006Z,26.80
2022-08-17T16:14:38.723Z,26.80
2022-08-17T16:17:39.098Z,26.80
2022-08-17T16:19:55.361Z,26.80
2022-08-17T16:22:34.990Z,26.80
2022-08-17T16:25:05.235Z,26.80
2022-08-17T16:27:33.224Z,26.80
2022-08-17T16:30:01.285Z,26.80
2022-08-17T16:32:31.781Z,26.80
2022-08-17T16:35:01.904Z,26.80
2022-08-17T16:37:31.230Z,26.80
2022-08-17T16:40:02.461Z,26.80
2022-08-17T16:42:31.695Z,26.80
2022-08-17T16:45:19.085Z,26.80
2022-08-17T16:47:48.610Z,26.70
2022-08-17T16:50:17.754Z,26.60
2022-08-17T16:52:48.869Z,26.60
2022-08-17T16:55:18.636Z,26.50
2022-08-17T16:57:47.490Z,26.40
2022-08-17T17:00:19.590Z,26.40
2022-08-17T17:02:48.185Z,26.40
2022-08-17T17:05:18.639Z,26.40
2022-08-17T17:08:09.228Z,26.30
2022-08-17T17:10:42.912Z,26.30
2022-08-17T17:13:30.845Z,26.30
2022-08-17T17:16:17.023Z,26.20
2022-08-17T17:18:55.233Z,26.20
2022-08-17T17:21:25.657Z,26.10
2022-08-17T17:23:59.977Z,26.10
2022-08-17T17:26:30.505Z,26.10
2022-08-17T17:29:18.673Z,26.00
2022-08-17T17:32:04.818Z,26.00
2022-08-17T17:34:33.961Z,26.00
2022-08-17T17:37:05.546Z,26.00
2022-08-17T17:39:43.843Z,26.00
2022-08-17T17:42:14.529Z,25.90
2022-08-17T17:45:00.082Z,25.90
2022-08-17T17:47:28.892Z,25.90
2022-08-17T17:49:56.861Z,25.90
2022-08-17T17:52:36.397Z,25.90
2022-08-17T17:55:15.000Z,25.90
2022-08-17T17:57:54.770Z,25.90
2022-08-17T18:00:24.977Z,25.90
2022-08-17T18:03:02.016Z,25.90
2022-08-17T18:05:39.125Z,25.90
2022-08-17T18:08:15.676Z,25.80
2022-08-17T18:10:48.939Z,25.80
2022-08-17T18:13:43.434Z,25.80
2022-08-17T18:16:13.776Z,25.80
2022-08-17T18:18:44.846Z,25.80
2022-08-17T18:21:17.113Z,25.80
2022-08-17T18:23:53.094Z,25.80
2022-08-17T18:26:33.097Z,25.80
2022-08-17T18:29:01.547Z,25.80
2022-08-17T18:31:29.310Z,25.80
2022-08-17T18:34:36.110Z,25.80
2022-08-17T18:37:05.635Z,25.80
2022-08-17T18:39:33.632Z,25.80
2022-08-17T18:42:03.876Z,25.80
2022-08-17T18:44:42.011Z,25.80
2022-08-17T18:47:15.677Z,25.80
2022-08-17T18:49:45.490Z,25.80
2022-08-17T18:52:15.395Z,25.80
2022-08-17T18:55:05.927Z,25.80
2022-08-17T18:57:35.248Z,25.80
2022-08-17T19:00:10.969Z,25.80
2022-08-17T19:02:51.171Z,25.80
2022-08-17T19:05:38.775Z,25.70
2022-08-17T19:08:32.745Z,25.80
2022-08-17T19:11:22.377Z,25.80
2022-08-17T19:14:11.036Z,25.80
2022-08-17T19:16:46.467Z,25.80
2022-08-17T19:19:14.924Z,25.80
2022-08-17T19:21:49.454Z,25.80
2022-08-17T19:24:19.744Z,25.80
2022-08-17T19:26:56.523Z,25.90
2022-08-17T19:29:34.267Z,25.90
2022-08-17T19:32:03.039Z,25.90
2022-08-17T19:34:34.021Z,25.90
2022-08-17T19:37:07.090Z,25.90
2022-08-17T19:39:40.691Z,25.90
2022-08-17T19:42:19.528Z,25.90
2022-08-17T19:45:13.688Z,25.90
2022-08-17T19:48:03.137Z,26.00
2022-08-17T19:50:41.694Z,25.90
2022-08-17T19:53:47.388Z,25.90
2022-08-17T19:56:22.898Z,25.90
2022-08-17T19:58:58.317Z,25.90
2022-08-17T20:01:38.925Z,26.00
2022-08-17T20:04:10.016Z,26.00
2022-08-17T20:06:39.354Z,26.00
2022-08-17T20:09:15.026Z,26.00
2022-08-17T20:11:47.712Z,26.00
2022-08-17T20:14:19.221Z,26.00
2022-08-17T20:16:47.138Z,26.00
2022-08-17T20:19:15.157Z,26.00
2022-08-17T20:22:03.614Z,26.00
2022-08-17T20:24:48.620Z,26.00
2022-08-17T20:27:21.792Z,26.00
2022-08-17T20:30:01.307Z,26.00
2022-08-17T20:32:35.183Z,26.00
2022-08-17T20:35:04.051Z,26.00
2022-08-17T20:37:34.376Z,26.00
2022-08-17T20:40:05.382Z,26.00
2022-08-17T20:42:34.145Z,26.00
2022-08-17T20:45:20.322Z,26.00
2022-08-17T20:48:15.977Z,26.00
2022-08-17T20:50:40.559Z,26.00
2022-08-17T20:53:15.111Z,26.00
2022-08-17T20:55:52.403Z,26.00
2022-08-17T20:58:30.547Z,26.00
2022-08-17T21:00:59.257Z,26.00
2022-08-17T21:03:27.504Z,26.00
2022-08-17T21:06:17.564Z,26.00
2022-08-17T21:08:54.968Z,26.00
2022-08-17T21:12:03.067Z,26.00
2022-08-17T21:14:17.640Z,26.00
2022-08-17T21:17:01.631Z,26.10
2022-08-17T21:19:31.230Z,26.10
2022-08-17T21:22:02.088Z,26.00
2022-08-17T21:24:35.900Z,26.00
2022-08-17T21:27:18.584Z,26.00
2022-08-17T21:30:06.690Z,26.00
2022-08-17T21:32:40.447Z,26.10
2022-08-17T21:35:25.216Z,26.00
2022-08-17T21:37:56.673Z,26.00
2022-08-17T21:40:29.287Z,26.00
2022-08-17T21:43:16.177Z,26.00
2022-08-17T21:45:54.206Z,26.00
2022-08-17T21:48:24.428Z,26.00
2022-08-17T21:50:58.376Z,26.10
2022-08-17T21:53:32.871Z,26.00
2022-08-17T21:56:01.404Z,26.00
2022-08-17T21:58:31.333Z,26.00
2022-08-17T22:01:17.625Z,26.00
2022-08-17T22:03:47.528Z,26.00
2022-08-17T22:06:23.837Z,26.00
2022-08-17T22:09:02.614Z,26.10
2022-08-17T22:11:30.740Z,26.00
2022-08-17T22:14:05.419Z,26.00
2022-08-17T22:16:34.056Z,26.00
2022-08-17T22:19:02.243Z,26.00
2022-08-17T22:21:29.967Z,26.00
2022-08-17T22:24:06.936Z,26.00
2022-08-17T22:26:53.526Z,26.00
2022-08-17T22:29:59.782Z,26.00
2022-08-17T22:32:37.556Z,26.00
2022-08-17T22:35:23.852Z,26.00
2022-08-17T22:37:52.094Z,26.00
2022-08-17T22:40:29.310Z,26.00
2022-08-17T22:42:58.333Z,26.00
2022-08-17T22:45:27.272Z,26.00
2022-08-17T22:47:56.905Z,26.00
2022-08-17T22:50:26.551Z,26.00
2022-08-17T22:53:17.867Z,26.00
2022-08-17T22:56:09.548Z,26.00
2022-08-17T22:59:06.136Z,26.00
2022-08-17T23:01:35.712Z,26.00
2022-08-17T23:04:06.096Z,26.00
2022-08-17T23:06:35.398Z,26.00
2022-08-17T23:09:04.427Z,26.00
2022-08-17T23:11:48.920Z,25.90
2022-08-17T23:14:21.824Z,26.00
2022-08-17T23:16:50.606Z,26.00
2022-08-17T23:19:19.761Z,25.90
2022-08-17T23:21:47.708Z,25.90
2022-08-17T23:24:19.497Z,25.90
2022-08-17T23:26:47.732Z,25.90
2022-08-17T23:29:15.424Z,25.80
2022-08-17T23:31:43.307Z,25.90
2022-08-17T23:34:12.425Z,25.90
2022-08-17T23:36:40.253Z,25.90
2022-08-17T23:39:08.277Z,25.80
2022-08-17T23:41:38.890Z,25.80
2022-08-17T23:44:07.407Z,25.80
2022-08-17T23:46:35.469Z,25.80
2022-08-17T23:49:03.755Z,25.80
2022-08-17T23:51:34.861Z,25.80
2022-08-17T23:54:12.917Z,25.80
2022-08-17T23:56:49.638Z,25.80
2022-08-17T23:59:19.130Z,25.80
